Time;durP1;ratioP1;P1;durP2;ratioP2;P2;SDS_P1;SDS_P2;PMS_P1;PMS_P2;Temp;Humidity;BMP_temperature;BMP_pressure;BME280_temperature;BME280_humidity;BME280_pressure;Samples;Min_cycle;Max_cycle;Signal;HPM_P1;HPM_P2
2022/01/26 11:30:21;;;;;;;2.53;1.97;;;;;;;1.54;95.34;100315.63;5192288;27;20521;-88
2022/01/26 11:33:14;;;;;;;3.57;2.00;;;;;;;2.37;92.57;100348.34;5136763;27;39713;-83
2022/01/26 11:35:55;;;;;;;2.50;2.03;;;;;;;2.78;88.61;100342.00;5139161;27;42265;-86
2022/01/26 11:42:13;;;;;;;3.43;2.10;;;;;;;3.24;85.49;100342.50;5157320;27;43246;-84
2022/01/26 11:45:34;;;;;;;1.87;1.57;;;;;;;4.02;80.60;100367.88;5157164;27;38957;-90
2022/01/26 11:48:18;;;;;;;2.63;1.83;;;;;;;4.12;79.18;100370.38;5155657;27;41806;-84
2022/01/26 11:51:07;;;;;;;2.60;1.90;;;;;;;4.21;77.06;100366.75;5156546;27;42008;-84
2022/01/26 11:53:47;;;;;;;3.17;1.50;;;;;;;4.36;77.20;100374.44;5173063;27;41254;-85
2022/01/26 11:56:35;;;;;;;5.03;2.10;;;;;;;4.43;75.96;100378.72;5155797;27;40399;-84
2022/01/26 11:59:26;;;;;;;1.97;1.60;;;;;;;4.48;75.53;100376.91;5155709;27;40753;-84
2022/01/26 12:02:30;;;;;;;2.67;1.57;;;;;;;4.47;75.13;100374.28;5155802;27;41759;-84
2022/01/26 12:05:18;;;;;;;2.73;1.60;;;;;;;4.31;74.51;100350.91;5156118;27;42278;-85
2022/01/26 12:08:06;;;;;;;3.03;1.93;;;;;;;4.46;74.59;100381.28;5156218;27;39085;-87
2022/01/26 12:10:46;;;;;;;2.67;1.47;;;;;;;4.39;73.50;100373.53;5154476;27;40643;-86
2022/01/26 12:13:36;;;;;;;1.83;1.50;;;;;;;4.35;73.17;100367.44;5156446;27;43426;-85
2022/01/26 12:16:23;;;;;;;1.47;1.37;;;;;;;4.40;73.55;100378.75;5156299;27;42426;-90
2022/01/26 12:19:26;;;;;;;2.30;1.50;;;;;;;4.44;74.00;100375.22;5166339;27;38884;-84
2022/01/26 12:37:38;;;;;;;2.57;1.33;;;;;;;4.44;72.69;100375.22;5185892;27;42917;-83
2022/01/26 12:43:39;;;;;;;1.60;1.23;;;;;;;4.27;71.71;100350.97;5120627;27;39252;-89
2022/01/26 12:46:28;;;;;;;2.30;1.27;;;;;;;4.39;71.84;100379.66;5146443;27;42365;-90
2022/01/26 12:49:13;;;;;;;2.40;1.80;;;;;;;4.39;71.93;100382.28;5141510;27;41375;-88
2022/01/26 12:52:02;;;;;;;1.97;1.53;;;;;;;4.41;71.77;100370.00;5142010;27;41393;-90
2022/01/26 12:54:46;;;;;;;2.43;1.50;;;;;;;4.28;71.67;100352.69;5141324;27;38644;-88
2022/01/26 12:57:35;;;;;;;2.07;1.67;;;;;;;3.84;71.95;100309.53;5141851;27;40782;-84
2022/01/26 13:00:17;;;;;;;3.23;1.80;;;;;;;4.00;72.17;100346.06;5140872;27;41682;-87
2022/01/26 13:03:04;;;;;;;2.93;1.77;;;;;;;3.94;72.71;100350.50;5142217;27;41249;-87
2022/01/26 13:05:45;;;;;;;1.77;1.43;;;;;;;3.94;73.41;100367.97;5141140;27;40121;-85
2022/01/26 13:08:33;;;;;;;1.90;1.70;;;;;;;3.90;73.67;100367.13;5141728;27;40443;-89
2022/01/26 13:11:14;;;;;;;4.00;2.20;;;;;;;3.96;73.66;100382.78;5140969;27;41973;-91
2022/01/26 13:14:14;;;;;;;2.37;2.17;;;;;;;3.95;73.86;100374.97;5141922;27;41074;-85
2022/01/26 13:16:59;;;;;;;2.33;1.60;;;;;;;3.77;74.61;100351.56;5140495;27;39035;-85
2022/01/26 13:20:02;;;;;;;2.53;1.83;;;;;;;3.82;74.83;100363.75;5142256;27;41949;-85
2022/01/26 13:22:59;;;;;;;5.27;1.87;;;;;;;3.74;75.22;100355.09;5139876;27;42148;-84
2022/01/26 13:26:02;;;;;;;2.13;1.63;;;;;;;3.83;75.45;100380.34;5141151;27;41362;-83
2022/01/26 13:28:57;;;;;;;1.80;1.70;;;;;;;3.74;75.50;100367.31;5140425;27;39336;-86
2022/01/26 13:41:03;;;;;;;3.13;2.23;;;;;;;3.38;75.65;100339.75;5140704;27;40246;-85
2022/01/26 13:53:06;;;;;;;2.23;1.60;;;;;;;3.62;76.06;100386.66;5129677;27;20522;-83
2022/01/26 13:59:03;;;;;;;4.17;2.73;;;;;;;3.61;76.49;100377.06;5108513;27;40921;-81
2022/01/26 14:01:51;;;;;;;3.90;2.17;;;;;;;3.65;75.95;100381.38;5112985;27;41695;-82
2022/01/26 14:04:33;;;;;;;3.37;1.97;;;;;;;3.63;76.32;100388.38;5116693;27;42077;-83
2022/01/26 14:07:20;;;;;;;5.17;2.87;;;;;;;3.58;76.69;100379.72;5112090;27;40168;-84
2022/01/26 14:10:02;;;;;;;3.50;2.20;;;;;;;3.46;76.68;100370.22;5126124;27;41717;-83
